sensor_id;sensor_type;location;lat;lon;timestamp;pressure;altitude;pressure_sealevel;temperature;humidity
39455;BME280;25155;41.890;23.446;2023-10-09T00:02:13;92306.16;;;16.83;50.54
39455;BME280;25155;41.890;23.446;2023-10-09T00:04:41;92305.06;;;16.70;50.65
39455;BME280;25155;41.890;23.446;2023-10-09T00:07:11;92312.22;;;16.83;50.42
39455;BME280;25155;41.890;23.446;2023-10-09T00:09:42;92316.88;;;16.72;50.40
39455;BME280;25155;41.890;23.446;2023-10-09T00:12:14;92320.50;;;16.76;50.67
39455;BME280;25155;41.890;23.446;2023-10-09T00:14:42;92310.84;;;16.72;50.88
39455;BME280;25155;41.890;23.446;2023-10-09T00:17:16;92315.53;;;16.75;50.74
39455;BME280;25155;41.890;23.446;2023-10-09T00:19:48;92312.38;;;16.73;51.13
39455;BME280;25155;41.890;23.446;2023-10-09T00:22:17;92321.75;;;16.65;51.28
39455;BME280;25155;41.890;23.446;2023-10-09T00:24:56;92320.75;;;16.61;51.53
39455;BME280;25155;41.890;23.446;2023-10-09T00:27:46;92316.06;;;16.58;51.20
39455;BME280;25155;41.890;23.446;2023-10-09T00:30:15;92325.06;;;16.57;51.62
39455;BME280;25155;41.890;23.446;2023-10-09T00:32:45;92310.50;;;16.46;51.59
39455;BME280;25155;41.890;23.446;2023-10-09T00:35:20;92318.59;;;16.49;51.83
39455;BME280;25155;41.890;23.446;2023-10-09T00:38:20;92327.34;;;16.45;51.65
39455;BME280;25155;41.890;23.446;2023-10-09T00:40:58;92323.94;;;16.44;52.14
39455;BME280;25155;41.890;23.446;2023-10-09T00:43:36;92305.31;;;16.40;52.29
39455;BME280;25155;41.890;23.446;2023-10-09T00:46:06;92315.78;;;16.27;52.39
39455;BME280;25155;41.890;23.446;2023-10-09T00:48:39;92322.06;;;16.31;52.40
39455;BME280;25155;41.890;23.446;2023-10-09T00:51:08;92323.03;;;16.35;52.23
39455;BME280;25155;41.890;23.446;2023-10-09T00:53:45;92312.41;;;16.26;52.66
39455;BME280;25155;41.890;23.446;2023-10-09T00:56:17;92316.88;;;16.26;52.81
39455;BME280;25155;41.890;23.446;2023-10-09T00:58:56;92306.94;;;16.22;52.52
39455;BME280;25155;41.890;23.446;2023-10-09T01:01:34;92308.28;;;16.20;52.65
39455;BME280;25155;41.890;23.446;2023-10-09T01:04:05;92310.91;;;16.20;52.65
39455;BME280;25155;41.890;23.446;2023-10-09T01:06:36;92320.66;;;16.19;52.94
39455;BME280;25155;41.890;23.446;2023-10-09T01:09:10;92319.16;;;16.13;53.03
39455;BME280;25155;41.890;23.446;2023-10-09T01:11:39;92326.09;;;16.09;52.96
39455;BME280;25155;41.890;23.446;2023-10-09T01:14:29;92323.44;;;16.09;52.98
39455;BME280;25155;41.890;23.446;2023-10-09T01:16:57;92333.84;;;16.00;53.03
39455;BME280;25155;41.890;23.446;2023-10-09T01:19:28;92330.22;;;15.96;53.31
39455;BME280;25155;41.890;23.446;2023-10-09T01:21:56;92331.59;;;15.94;53.21
39455;BME280;25155;41.890;23.446;2023-10-09T01:24:31;92343.94;;;15.93;53.53
39455;BME280;25155;41.890;23.446;2023-10-09T01:27:05;92345.00;;;15.92;53.28
39455;BME280;25155;41.890;23.446;2023-10-09T01:29:38;92348.78;;;15.86;53.38
39455;BME280;25155;41.890;23.446;2023-10-09T01:32:07;92344.84;;;15.83;53.47
39455;BME280;25155;41.890;23.446;2023-10-09T01:34:42;92359.22;;;15.91;53.42
39455;BME280;25155;41.890;23.446;2023-10-09T01:37:11;92360.91;;;15.82;53.42
39455;BME280;25155;41.890;23.446;2023-10-09T01:39:46;92365.19;;;15.78;53.53
39455;BME280;25155;41.890;23.446;2023-10-09T01:42:14;92373.09;;;15.78;53.63
39455;BME280;25155;41.890;23.446;2023-10-09T01:44:50;92363.06;;;15.80;53.91
39455;BME280;25155;41.890;23.446;2023-10-09T01:47:18;92366.97;;;15.82;53.90
39455;BME280;25155;41.890;23.446;2023-10-09T01:49:47;92366.00;;;15.73;53.74
39455;BME280;25155;41.890;23.446;2023-10-09T01:52:18;92364.44;;;15.72;53.88
39455;BME280;25155;41.890;23.446;2023-10-09T01:54:51;92378.44;;;15.67;53.91
39455;BME280;25155;41.890;23.446;2023-10-09T01:57:20;92370.03;;;15.65;54.39
39455;BME280;25155;41.890;23.446;2023-10-09T01:59:50;92374.38;;;15.56;54.23
39455;BME280;25155;41.890;23.446;2023-10-09T02:02:20;92364.22;;;15.49;54.96
39455;BME280;25155;41.890;23.446;2023-10-09T02:05:01;92354.75;;;15.48;54.84
39455;BME280;25155;41.890;23.446;2023-10-09T02:07:36;92347.00;;;15.38;55.04
39455;BME280;25155;41.890;23.446;2023-10-09T02:10:19;92359.13;;;15.34;55.29
39455;BME280;25155;41.890;23.446;2023-10-09T02:12:58;92356.81;;;15.32;55.45
39455;BME280;25155;41.890;23.446;2023-10-09T02:15:26;92352.53;;;15.37;55.12
39455;BME280;25155;41.890;23.446;2023-10-09T02:18:19;92353.66;;;15.30;55.41
39455;BME280;25155;41.890;23.446;2023-10-09T02:21:06;92367.81;;;15.35;55.31
39455;BME280;25155;41.890;23.446;2023-10-09T02:23:40;92378.69;;;15.47;54.75
39455;BME280;25155;41.890;23.446;2023-10-09T02:26:14;92379.19;;;15.49;54.69
39455;BME280;25155;41.890;23.446;2023-10-09T02:28:46;92375.34;;;15.41;54.80
39455;BME280;25155;41.890;23.446;2023-10-09T02:31:24;92374.44;;;15.51;54.48
39455;BME280;25155;41.890;23.446;2023-10-09T02:33:54;92374.94;;;15.53;54.41
39455;BME280;25155;41.890;23.446;2023-10-09T02:36:22;92374.16;;;15.53;54.41
39455;BME280;25155;41.890;23.446;2023-10-09T02:38:50;92368.44;;;15.45;54.71
39455;BME280;25155;41.890;23.446;2023-10-09T02:41:22;92382.28;;;15.32;55.12
39455;BME280;25155;41.890;23.446;2023-10-09T02:43:54;92381.72;;;15.35;54.74
39455;BME280;25155;41.890;23.446;2023-10-09T02:46:23;92381.94;;;15.39;55.00
39455;BME280;25155;41.890;23.446;2023-10-09T02:48:56;92383.50;;;15.40;54.95
39455;BME280;25155;41.890;23.446;2023-10-09T02:51:25;92384.50;;;15.44;54.67
39455;BME280;25155;41.890;23.446;2023-10-09T02:54:02;92385.38;;;15.39;54.72
39455;BME280;25155;41.890;23.446;2023-10-09T02:56:54;92384.75;;;15.23;55.15
39455;BME280;25155;41.890;23.446;2023-10-09T02:59:30;92388.47;;;15.17;55.07
39455;BME280;25155;41.890;23.446;2023-10-09T03:01:58;92366.19;;;15.15;54.96
39455;BME280;25155;41.890;23.446;2023-10-09T03:04:32;92366.81;;;15.06;55.00
39455;BME280;25155;41.890;23.446;2023-10-09T03:07:00;92365.06;;;14.97;55.12
39455;BME280;25155;41.890;23.446;2023-10-09T03:09:29;92370.53;;;15.00;54.77
39455;BME280;25155;41.890;23.446;2023-10-09T03:12:01;92373.13;;;14.76;55.39
39455;BME280;25155;41.890;23.446;2023-10-09T03:14:29;92369.38;;;14.53;55.43
39455;BME280;25155;41.890;23.446;2023-10-09T03:16:57;92360.66;;;14.63;55.35
39455;BME280;25155;41.890;23.446;2023-10-09T03:19:26;92357.19;;;14.67;54.88
39455;BME280;25155;41.890;23.446;2023-10-09T03:21:54;92350.69;;;14.60;55.12
39455;BME280;25155;41.890;23.446;2023-10-09T03:24:23;92340.72;;;14.62;54.71
39455;BME280;25155;41.890;23.446;2023-10-09T03:26:50;92344.69;;;14.59;54.58
39455;BME280;25155;41.890;23.446;2023-10-09T03:29:19;92347.63;;;14.47;55.10
39455;BME280;25155;41.890;23.446;2023-10-09T03:31:46;92359.19;;;14.46;54.82
39455;BME280;25155;41.890;23.446;2023-10-09T03:34:16;92347.22;;;14.35;55.15
39455;BME280;25155;41.890;23.446;2023-10-09T03:36:44;92351.41;;;14.36;55.34
39455;BME280;25155;41.890;23.446;2023-10-09T03:39:11;92352.19;;;14.36;55.30
39455;BME280;25155;41.890;23.446;2023-10-09T03:41:50;92346.75;;;14.28;55.70
39455;BME280;25155;41.890;23.446;2023-10-09T03:44:21;92354.19;;;14.15;55.97
39455;BME280;25155;41.890;23.446;2023-10-09T03:46:49;92356.59;;;14.12;56.08
39455;BME280;25155;41.890;23.446;2023-10-09T03:49:17;92349.50;;;14.12;56.20
39455;BME280;25155;41.890;23.446;2023-10-09T03:51:49;92343.22;;;14.13;56.00
39455;BME280;25155;41.890;23.446;2023-10-09T03:54:16;92364.19;;;14.13;56.14
39455;BME280;25155;41.890;23.446;2023-10-09T03:56:46;92365.16;;;14.23;56.05
39455;BME280;25155;41.890;23.446;2023-10-09T03:59:16;92363.34;;;14.18;56.35
39455;BME280;25155;41.890;23.446;2023-10-09T04:01:47;92359.00;;;14.03;56.65
39455;BME280;25155;41.890;23.446;2023-10-09T04:04:14;92364.25;;;14.03;56.49
39455;BME280;25155;41.890;23.446;2023-10-09T04:06:41;92356.91;;;14.00;56.42
39455;BME280;25155;41.890;23.446;2023-10-09T04:09:10;92362.47;;;13.93;56.40
39455;BME280;25155;41.890;23.446;2023-10-09T04:11:52;92370.38;;;13.88;56.73
39455;BME280;25155;41.890;23.446;2023-10-09T04:14:44;92371.41;;;13.92;56.88
39455;BME280;25155;41.890;23.446;2023-10-09T04:17:21;92375.88;;;13.87;56.37
39455;BME280;25155;41.890;23.446;2023-10-09T04:20:01;92380.59;;;13.90;56.38
39455;BME280;25155;41.890;23.446;2023-10-09T04:22:45;92380.63;;;13.84;56.34
39455;BME280;25155;41.890;23.446;2023-10-09T04:25:17;92386.63;;;13.90;56.21
39455;BME280;25155;41.890;23.446;2023-10-09T04:27:52;92376.72;;;13.82;56.50
39455;BME280;25155;41.890;23.446;2023-10-09T04:30:26;92376.69;;;13.87;56.11
39455;BME280;25155;41.890;23.446;2023-10-09T04:32:55;92383.78;;;13.81;56.58
39455;BME280;25155;41.890;23.446;2023-10-09T04:35:30;92379.63;;;13.70;56.45
39455;BME280;25155;41.890;23.446;2023-10-09T04:37:59;92389.84;;;13.72;56.42
39455;BME280;25155;41.890;23.446;2023-10-09T04:40:31;92389.63;;;13.68;56.37
39455;BME280;25155;41.890;23.446;2023-10-09T04:43:25;92403.56;;;13.58;56.49
39455;BME280;25155;41.890;23.446;2023-10-09T04:45:52;92395.94;;;13.62;56.16
39455;BME280;25155;41.890;23.446;2023-10-09T04:48:39;92394.66;;;13.59;56.43
39455;BME280;25155;41.890;23.446;2023-10-09T04:51:11;92392.25;;;13.63;56.11
39455;BME280;25155;41.890;23.446;2023-10-09T04:53:47;92395.97;;;13.52;55.67
39455;BME280;25155;41.890;23.446;2023-10-09T04:56:26;92405.47;;;13.42;56.17
39455;BME280;25155;41.890;23.446;2023-10-09T04:58:57;92401.28;;;13.41;56.20
39455;BME280;25155;41.890;23.446;2023-10-09T05:01:30;92400.50;;;13.36;55.79
39455;BME280;25155;41.890;23.446;2023-10-09T05:04:10;92406.47;;;13.46;55.04
39455;BME280;25155;41.890;23.446;2023-10-09T05:06:55;92415.13;;;13.47;54.74
39455;BME280;25155;41.890;23.446;2023-10-09T05:09:21;92414.03;;;13.58;54.03
39455;BME280;25155;41.890;23.446;2023-10-09T05:11:50;92418.47;;;13.63;53.67
39455;BME280;25155;41.890;23.446;2023-10-09T05:14:20;92424.75;;;13.67;53.81
39455;BME280;25155;41.890;23.446;2023-10-09T05:17:05;92423.88;;;13.87;53.28
39455;BME280;25155;41.890;23.446;2023-10-09T05:19:43;92426.97;;;13.94;52.64
39455;BME280;25155;41.890;23.446;2023-10-09T05:22:43;92436.59;;;14.09;52.72
39455;BME280;25155;41.890;23.446;2023-10-09T05:25:23;92442.81;;;14.24;52.35
39455;BME280;25155;41.890;23.446;2023-10-09T05:28:04;92451.44;;;14.29;51.34
39455;BME280;25155;41.890;23.446;2023-10-09T05:30:45;92448.41;;;14.46;51.91
39455;BME280;25155;41.890;23.446;2023-10-09T05:33:20;92453.84;;;14.65;52.03
39455;BME280;25155;41.890;23.446;2023-10-09T05:36:01;92463.94;;;14.82;51.50
39455;BME280;25155;41.890;23.446;2023-10-09T05:38:48;92461.69;;;15.00;51.70
39455;BME280;25155;41.890;23.446;2023-10-09T05:41:24;92456.28;;;15.15;51.02
39455;BME280;25155;41.890;23.446;2023-10-09T05:44:11;92472.00;;;15.20;49.72
39455;BME280;25155;41.890;23.446;2023-10-09T05:46:55;92463.56;;;15.23;49.64
39455;BME280;25155;41.890;23.446;2023-10-09T05:49:48;92464.03;;;15.30;49.49
39455;BME280;25155;41.890;23.446;2023-10-09T05:52:30;92463.41;;;15.39;48.92
39455;BME280;25155;41.890;23.446;2023-10-09T05:55:30;92467.72;;;15.54;49.29
39455;BME280;25155;41.890;23.446;2023-10-09T05:58:29;92474.59;;;15.74;49.25
39455;BME280;25155;41.890;23.446;2023-10-09T06:01:14;92479.72;;;15.89;49.33
39455;BME280;25155;41.890;23.446;2023-10-09T06:03:58;92489.50;;;16.08;49.38
39455;BME280;25155;41.890;23.446;2023-10-09T06:06:41;92494.56;;;16.23;49.85
39455;BME280;25155;41.890;23.446;2023-10-09T06:09:13;92490.25;;;16.32;49.37
39455;BME280;25155;41.890;23.446;2023-10-09T06:12:04;92496.84;;;16.49;49.89
39455;BME280;25155;41.890;23.446;2023-10-09T06:14:48;92504.03;;;16.62;50.09
39455;BME280;25155;41.890;23.446;2023-10-09T06:29:23;92514.97;;;18.51;46.98
39455;BME280;25155;41.890;23.446;2023-10-09T06:32:01;92525.69;;;18.32;47.03
39455;BME280;25155;41.890;23.446;2023-10-09T06:35:00;92527.25;;;18.19;46.30
39455;BME280;25155;41.890;23.446;2023-10-09T06:37:57;92528.72;;;18.12;46.32
39455;BME280;25155;41.890;23.446;2023-10-09T06:40:48;92534.09;;;18.06;45.61
39455;BME280;25155;41.890;23.446;2023-10-09T06:43:32;92530.22;;;18.04;45.65
39455;BME280;25155;41.890;23.446;2023-10-09T06:46:03;92536.25;;;17.91;44.56
39455;BME280;25155;41.890;23.446;2023-10-09T06:48:47;92539.25;;;17.70;43.68
39455;BME280;25155;41.890;23.446;2023-10-09T06:51:22;92544.69;;;17.60;44.07
39455;BME280;25155;41.890;23.446;2023-10-09T06:54:17;92546.59;;;17.40;43.95
39455;BME280;25155;41.890;23.446;2023-10-09T06:56:44;92540.66;;;17.34;43.53
39455;BME280;25155;41.890;23.446;2023-10-09T06:59:37;92548.66;;;17.10;43.94
39455;BME280;25155;41.890;23.446;2023-10-09T07:02:24;92550.38;;;17.01;45.00
39455;BME280;25155;41.890;23.446;2023-10-09T07:04:57;92549.56;;;16.87;44.71
39455;BME280;25155;41.890;23.446;2023-10-09T07:07:36;92550.09;;;16.84;44.88
39455;BME280;25155;41.890;23.446;2023-10-09T07:10:17;92550.03;;;16.89;44.35
39455;BME280;25155;41.890;23.446;2023-10-09T07:12:55;92550.53;;;16.91;44.05
39455;BME280;25155;41.890;23.446;2023-10-09T07:15:22;92549.88;;;16.80;43.50
39455;BME280;25155;41.890;23.446;2023-10-09T07:18:07;92544.53;;;16.66;44.21
39455;BME280;25155;41.890;23.446;2023-10-09T07:20:49;92549.84;;;16.85;44.34
39455;BME280;25155;41.890;23.446;2023-10-09T07:36:06;92564.69;;;18.35;39.77
39455;BME280;25155;41.890;23.446;2023-10-09T07:38:34;92549.56;;;18.13;39.05
39455;BME280;25155;41.890;23.446;2023-10-09T07:41:02;92550.44;;;17.95;39.71
39455;BME280;25155;41.890;23.446;2023-10-09T07:43:43;92561.09;;;17.57;40.09
39455;BME280;25155;41.890;23.446;2023-10-09T07:46:13;92558.19;;;17.72;39.33
39455;BME280;25155;41.890;23.446;2023-10-09T07:48:59;92564.03;;;17.55;39.60
39455;BME280;25155;41.890;23.446;2023-10-09T07:51:36;92553.09;;;17.62;39.57
39455;BME280;25155;41.890;23.446;2023-10-09T07:54:04;92545.56;;;17.69;39.43
39455;BME280;25155;41.890;23.446;2023-10-09T07:56:33;92546.19;;;17.66;38.93
39455;BME280;25155;41.890;23.446;2023-10-09T07:59:07;92543.66;;;17.75;39.56
39455;BME280;25155;41.890;23.446;2023-10-09T08:01:37;92547.25;;;17.79;39.07
39455;BME280;25155;41.890;23.446;2023-10-09T08:04:05;92555.06;;;17.84;37.85
39455;BME280;25155;41.890;23.446;2023-10-09T08:06:38;92546.72;;;17.96;37.99
39455;BME280;25155;41.890;23.446;2023-10-09T08:09:09;92544.16;;;17.91;37.25
39455;BME280;25155;41.890;23.446;2023-10-09T08:11:53;92554.53;;;17.87;37.93
39455;BME280;25155;41.890;23.446;2023-10-09T08:14:41;92555.06;;;17.84;37.38
39455;BME280;25155;41.890;23.446;2023-10-09T08:17:11;92550.44;;;17.95;37.90
39455;BME280;25155;41.890;23.446;2023-10-09T08:19:42;92548.28;;;17.97;36.53
39455;BME280;25155;41.890;23.446;2023-10-09T08:22:24;92552.59;;;18.06;37.21
39455;BME280;25155;41.890;23.446;2023-10-09T08:25:09;92545.53;;;18.30;37.30
39455;BME280;25155;41.890;23.446;2023-10-09T08:27:53;92549.44;;;18.46;36.18
39455;BME280;25155;41.890;23.446;2023-10-09T08:30:25;92549.25;;;18.42;36.18
39455;BME280;25155;41.890;23.446;2023-10-09T08:33:06;92544.72;;;18.43;37.20
39455;BME280;25155;41.890;23.446;2023-10-09T08:35:52;92553.03;;;18.64;36.79
39455;BME280;25155;41.890;23.446;2023-10-09T08:38:23;92535.47;;;18.68;35.95
39455;BME280;25155;41.890;23.446;2023-10-09T08:40:51;92532.63;;;18.78;36.67
39455;BME280;25155;41.890;23.446;2023-10-09T08:43:24;92538.50;;;18.89;36.75
39455;BME280;25155;41.890;23.446;2023-10-09T08:45:53;92529.00;;;18.88;35.76
39455;BME280;25155;41.890;23.446;2023-10-09T08:48:27;92536.63;;;18.90;35.65
39455;BME280;25155;41.890;23.446;2023-10-09T08:50:55;92527.75;;;19.08;36.26
39455;BME280;25155;41.890;23.446;2023-10-09T08:53:25;92521.91;;;18.97;34.87
39455;BME280;25155;41.890;23.446;2023-10-09T08:55:53;92523.63;;;18.93;35.24
39455;BME280;25155;41.890;23.446;2023-10-09T08:58:20;92529.19;;;18.92;35.58
39455;BME280;25155;41.890;23.446;2023-10-09T09:00:50;92529.72;;;19.03;34.42
39455;BME280;25155;41.890;23.446;2023-10-09T09:03:19;92526.38;;;19.11;35.34
39455;BME280;25155;41.890;23.446;2023-10-09T09:05:48;92512.13;;;19.21;34.39
39455;BME280;25155;41.890;23.446;2023-10-09T09:08:22;92515.97;;;19.14;34.68
39455;BME280;25155;41.890;23.446;2023-10-09T09:10:59;92511.81;;;19.22;34.02
39455;BME280;25155;41.890;23.446;2023-10-09T09:13:41;92506.53;;;19.22;34.02
39455;BME280;25155;41.890;23.446;2023-10-09T09:16:16;92510.97;;;19.35;34.35
39455;BME280;25155;41.890;23.446;2023-10-09T09:18:54;92503.06;;;19.44;34.07
39455;BME280;25155;41.890;23.446;2023-10-09T09:21:27;92501.28;;;19.53;34.08
39455;BME280;25155;41.890;23.446;2023-10-09T09:24:00;92488.19;;;19.48;32.77
39455;BME280;25155;41.890;23.446;2023-10-09T09:26:38;92499.78;;;19.39;33.32
39455;BME280;25155;41.890;23.446;2023-10-09T09:29:11;92481.78;;;19.49;33.08
39455;BME280;25155;41.890;23.446;2023-10-09T09:31:38;92483.38;;;19.59;32.87
39455;BME280;25155;41.890;23.446;2023-10-09T09:34:17;92481.41;;;19.65;32.93
39455;BME280;25155;41.890;23.446;2023-10-09T09:36:51;92466.06;;;19.76;32.92
39455;BME280;25155;41.890;23.446;2023-10-09T09:39:21;92470.75;;;19.79;32.24
39455;BME280;25155;41.890;23.446;2023-10-09T09:41:59;92465.47;;;19.87;32.17
39455;BME280;25155;41.890;23.446;2023-10-09T09:44:33;92464.25;;;20.02;32.58
39455;BME280;25155;41.890;23.446;2023-10-09T09:47:09;92455.41;;;20.07;31.96
39455;BME280;25155;41.890;23.446;2023-10-09T09:49:41;92461.47;;;20.07;31.75
39455;BME280;25155;41.890;23.446;2023-10-09T09:52:08;92460.09;;;20.19;31.74
39455;BME280;25155;41.890;23.446;2023-10-09T09:54:37;92455.88;;;20.09;31.83
39455;BME280;25155;41.890;23.446;2023-10-09T09:57:07;92458.34;;;19.97;31.52
39455;BME280;25155;41.890;23.446;2023-10-09T09:59:40;92451.00;;;19.94;32.62
39455;BME280;25155;41.890;23.446;2023-10-09T10:02:22;92436.53;;;19.91;31.51
39455;BME280;25155;41.890;23.446;2023-10-09T10:04:57;92445.56;;;19.99;32.08
39455;BME280;25155;41.890;23.446;2023-10-09T10:07:25;92432.00;;;19.83;32.13
39455;BME280;25155;41.890;23.446;2023-10-09T10:09:55;92420.97;;;19.98;31.75
39455;BME280;25155;41.890;23.446;2023-10-09T10:12:51;92420.50;;;19.96;31.40
39455;BME280;25155;41.890;23.446;2023-10-09T10:16:00;92413.34;;;20.05;31.01
39455;BME280;25155;41.890;23.446;2023-10-09T10:18:31;92417.88;;;20.14;30.74
39455;BME280;25155;41.890;23.446;2023-10-09T10:21:11;92408.22;;;20.18;30.64
39455;BME280;25155;41.890;23.446;2023-10-09T10:23:42;92396.53;;;20.19;30.94
39455;BME280;25155;41.890;23.446;2023-10-09T10:26:22;92393.72;;;19.98;28.96
39455;BME280;25155;41.890;23.446;2023-10-09T10:29:18;92397.63;;;20.26;29.27
39455;BME280;25155;41.890;23.446;2023-10-09T10:31:56;92387.19;;;20.56;30.23
39455;BME280;25155;41.890;23.446;2023-10-09T10:34:26;92385.34;;;20.74;30.46
39455;BME280;25155;41.890;23.446;2023-10-09T10:36:53;92383.25;;;21.06;29.46
39455;BME280;25155;41.890;23.446;2023-10-09T10:39:26;92378.63;;;21.33;29.92
39455;BME280;25155;41.890;23.446;2023-10-09T10:42:14;92379.97;;;21.56;27.71
39455;BME280;25155;41.890;23.446;2023-10-09T10:45:00;92367.06;;;21.76;23.79
39455;BME280;25155;41.890;23.446;2023-10-09T10:47:49;92375.50;;;21.78;22.59
39455;BME280;25155;41.890;23.446;2023-10-09T10:50:21;92380.44;;;21.88;22.86
39455;BME280;25155;41.890;23.446;2023-10-09T10:53:11;92368.53;;;21.95;23.32
39455;BME280;25155;41.890;23.446;2023-10-09T10:55:54;92363.09;;;22.12;21.30
39455;BME280;25155;41.890;23.446;2023-10-09T10:58:22;92361.69;;;22.15;24.66
39455;BME280;25155;41.890;23.446;2023-10-09T11:01:02;92359.34;;;22.13;22.76
39455;BME280;25155;41.890;23.446;2023-10-09T11:03:38;92353.63;;;22.02;22.69
39455;BME280;25155;41.890;23.446;2023-10-09T11:06:28;92347.03;;;22.08;24.12
39455;BME280;25155;41.890;23.446;2023-10-09T11:09:04;92354.16;;;22.17;24.78
39455;BME280;25155;41.890;23.446;2023-10-09T11:11:48;92344.81;;;22.10;24.38
39455;BME280;25155;41.890;23.446;2023-10-09T11:14:16;92325.69;;;22.17;24.54
39455;BME280;25155;41.890;23.446;2023-10-09T11:16:50;92340.28;;;22.11;24.69
39455;BME280;25155;41.890;23.446;2023-10-09T11:19:23;92337.38;;;22.04;24.92
39455;BME280;25155;41.890;23.446;2023-10-09T11:21:58;92341.13;;;22.03;24.63
39455;BME280;25155;41.890;23.446;2023-10-09T11:24:48;92325.38;;;21.98;24.63
39455;BME280;25155;41.890;23.446;2023-10-09T11:27:27;92334.03;;;21.65;25.17
39455;BME280;25155;41.890;23.446;2023-10-09T11:29:58;92331.41;;;21.86;23.93
39455;BME280;25155;41.890;23.446;2023-10-09T11:32:36;92317.13;;;21.69;24.57
39455;BME280;25155;41.890;23.446;2023-10-09T11:35:12;92326.72;;;21.62;24.33
39455;BME280;25155;41.890;23.446;2023-10-09T14:44:18;92246.69;;;19.57;19.88
39455;BME280;25155;41.890;23.446;2023-10-09T14:46:46;92240.78;;;19.60;19.73
39455;BME280;25155;41.890;23.446;2023-10-09T14:49:14;92242.78;;;19.54;19.74
39455;BME280;25155;41.890;23.446;2023-10-09T14:51:47;92245.13;;;19.47;19.98
39455;BME280;25155;41.890;23.446;2023-10-09T14:54:14;92247.00;;;19.46;20.64
39455;BME280;25155;41.890;23.446;2023-10-09T14:56:44;92246.34;;;19.41;21.12
39455;BME280;25155;41.890;23.446;2023-10-09T14:59:12;92251.78;;;19.35;21.31
39455;BME280;25155;41.890;23.446;2023-10-09T15:01:40;92253.63;;;19.26;21.99
39455;BME280;25155;41.890;23.446;2023-10-09T15:04:08;92253.78;;;19.21;21.84
39455;BME280;25155;41.890;23.446;2023-10-09T15:06:40;92265.16;;;19.22;22.04
39455;BME280;25155;41.890;23.446;2023-10-09T15:09:07;92253.31;;;19.19;22.94
39455;BME280;25155;41.890;23.446;2023-10-09T15:11:47;92248.78;;;19.11;22.98
39455;BME280;25155;41.890;23.446;2023-10-09T15:14:15;92263.06;;;19.01;23.48
39455;BME280;25155;41.890;23.446;2023-10-09T15:16:45;92270.78;;;18.89;23.38
39455;BME280;25155;41.890;23.446;2023-10-09T15:19:13;92277.31;;;18.91;23.94
39455;BME280;25155;41.890;23.446;2023-10-09T15:21:42;92272.97;;;18.87;23.73
39455;BME280;25155;41.890;23.446;2023-10-09T15:24:11;92271.09;;;18.87;24.05
39455;BME280;25155;41.890;23.446;2023-10-09T15:26:41;92275.91;;;18.85;24.30
39455;BME280;25155;41.890;23.446;2023-10-09T15:29:08;92275.63;;;18.87;24.47
39455;BME280;25155;41.890;23.446;2023-10-09T15:31:35;92267.50;;;18.83;24.45
39455;BME280;25155;41.890;23.446;2023-10-09T15:34:06;92276.31;;;18.78;25.06
39455;BME280;25155;41.890;23.446;2023-10-09T15:36:35;92269.91;;;18.71;24.83
39455;BME280;25155;41.890;23.446;2023-10-09T15:39:02;92268.34;;;18.70;25.10
39455;BME280;25155;41.890;23.446;2023-10-09T15:41:33;92267.41;;;18.66;25.41
39455;BME280;25155;41.890;23.446;2023-10-09T15:44:00;92266.56;;;18.56;25.85
39455;BME280;25155;41.890;23.446;2023-10-09T15:46:27;92273.44;;;18.57;26.08
39455;BME280;25155;41.890;23.446;2023-10-09T15:48:59;92268.28;;;18.52;26.05
39455;BME280;25155;41.890;23.446;2023-10-09T15:51:28;92267.75;;;18.41;26.51
39455;BME280;25155;41.890;23.446;2023-10-09T15:53:56;92271.28;;;18.37;26.52
39455;BME280;25155;41.890;23.446;2023-10-09T15:56:24;92276.69;;;18.32;26.16
39455;BME280;25155;41.890;23.446;2023-10-09T15:58:52;92271.72;;;18.30;26.51
39455;BME280;25155;41.890;23.446;2023-10-09T16:01:20;92267.44;;;18.20;26.71
39455;BME280;25155;41.890;23.446;2023-10-09T16:03:48;92274.56;;;18.11;26.36
39455;BME280;25155;41.890;23.446;2023-10-09T16:06:16;92280.59;;;18.12;26.77
39455;BME280;25155;41.890;23.446;2023-10-09T16:08:46;92276.94;;;17.99;26.77
39455;BME280;25155;41.890;23.446;2023-10-09T16:11:19;92282.22;;;17.99;27.02
39455;BME280;25155;41.890;23.446;2023-10-09T16:13:49;92278.31;;;17.96;26.99
39455;BME280;25155;41.890;23.446;2023-10-09T16:16:24;92279.91;;;17.83;26.66
39455;BME280;25155;41.890;23.446;2023-10-09T16:18:51;92280.97;;;17.82;26.92
39455;BME280;25155;41.890;23.446;2023-10-09T16:21:18;92284.03;;;17.76;26.82
39455;BME280;25155;41.890;23.446;2023-10-09T16:23:47;92280.13;;;17.73;27.09
39455;BME280;25155;41.890;23.446;2023-10-09T16:26:16;92278.84;;;17.70;27.15
39455;BME280;25155;41.890;23.446;2023-10-09T16:28:43;92284.06;;;17.62;27.17
39455;BME280;25155;41.890;23.446;2023-10-09T16:31:11;92282.31;;;17.57;27.38
39455;BME280;25155;41.890;23.446;2023-10-09T16:33:44;92291.50;;;17.60;26.74
39455;BME280;25155;41.890;23.446;2023-10-09T16:36:13;92292.03;;;17.48;27.40
39455;BME280;25155;41.890;23.446;2023-10-09T16:38:41;92297.28;;;17.34;28.03
39455;BME280;25155;41.890;23.446;2023-10-09T16:41:10;92292.53;;;17.22;28.05
39455;BME280;25155;41.890;23.446;2023-10-09T16:43:39;92285.72;;;17.07;27.89
39455;BME280;25155;41.890;23.446;2023-10-09T16:46:08;92290.88;;;16.99;27.97
39455;BME280;25155;41.890;23.446;2023-10-09T16:48:35;92290.19;;;16.93;27.88
39455;BME280;25155;41.890;23.446;2023-10-09T16:51:05;92292.50;;;16.81;28.18
39455;BME280;25155;41.890;23.446;2023-10-09T16:53:34;92293.28;;;16.81;27.97
39455;BME280;25155;41.890;23.446;2023-10-09T16:56:02;92304.19;;;16.74;28.16
39455;BME280;25155;41.890;23.446;2023-10-09T16:58:36;92287.16;;;16.72;28.29
39455;BME280;25155;41.890;23.446;2023-10-09T17:01:03;92292.13;;;16.73;28.31